Terminal Aerodrome Forecast
Issued by NWS

Home | Current Version | Previous Version | Graphics & Text | Print | Product List | Glossary On
Versions: 1 2 3 4 5 6 7 8 9 10 11 12 13 14 15 16 17 18 19 20 21 22 23 24 25
464
FTUS43 KLOT 102333
TAFDPA
TAF
KDPA 102333Z 1100/1124 32009KT P6SM FEW040 BKN250
     FM110100 31007KT P6SM SCT120 BKN250
     FM112100 26006KT P6SM SCT250=

USA.gov is the U.S. government's official web portal to all federal, state and local government web resources and services.